Benoni, South Africa
Current Conditions -  °F | °C
As of 9:30 PM on Monday 22 Dec 2014 (Local Time) from FAOR Reporting Station
Clear Clear  
Wind Chill: 70°   Ceiling: Unl
Heat Index: 70°   Visibility: 6mi
Dew Point: 57°   Wind: 16mph
Humidity: 64%   Direction: 40°NE
Pressure: 30.24"   Gusts: NA
Location:  26.15°S, 28.33°E
Report Text: FAOR 221930Z 04014KT CAVOK 21/14 Q1024 NOSIG
Loading
Personal Weather Stations






























Interactive Weather Map New forecast layout! Learn more

10-Day Weather Forecast

Advertisements
Track Severe Weather on mobile